sensor_id;sensor_type;location;lat;lon;timestamp;P1;durP1;ratioP1;P2;durP2;ratioP2
69327;SDS011;56472;52.114;5.492;2023-08-20T07:41:29;8.40;;;2.10;;
69327;SDS011;56472;52.114;5.492;2023-08-20T07:43:56;7.30;;;1.63;;
69327;SDS011;56472;52.114;5.492;2023-08-20T07:46:23;5.40;;;2.08;;
69327;SDS011;56472;52.114;5.492;2023-08-20T07:48:50;5.10;;;1.77;;
69327;SDS011;56472;52.114;5.492;2023-08-20T07:51:17;8.27;;;1.33;;
69327;SDS011;56472;52.114;5.492;2023-08-20T07:53:44;5.00;;;1.80;;
69327;SDS011;56472;52.114;5.492;2023-08-20T07:56:10;4.68;;;1.52;;
69327;SDS011;56472;52.114;5.492;2023-08-20T07:58:37;6.75;;;1.88;;
69327;SDS011;56472;52.114;5.492;2023-08-20T08:01:04;4.10;;;1.63;;
69327;SDS011;56472;52.114;5.492;2023-08-20T08:03:31;9.73;;;2.00;;
69327;SDS011;56472;52.114;5.492;2023-08-20T08:05:58;5.43;;;1.30;;
69327;SDS011;56472;52.114;5.492;2023-08-20T08:08:25;10.88;;;1.85;;
69327;SDS011;56472;52.114;5.492;2023-08-20T08:10:52;11.35;;;2.13;;
69327;SDS011;56472;52.114;5.492;2023-08-20T08:13:20;8.20;;;1.80;;
69327;SDS011;56472;52.114;5.492;2023-08-20T08:15:48;4.90;;;1.50;;
69327;SDS011;56472;52.114;5.492;2023-08-20T08:18:15;6.40;;;2.00;;
69327;SDS011;56472;52.114;5.492;2023-08-20T08:20:42;7.88;;;1.90;;
69327;SDS011;56472;52.114;5.492;2023-08-20T08:23:09;7.70;;;1.75;;
69327;SDS011;56472;52.114;5.492;2023-08-20T08:25:36;4.80;;;1.65;;
69327;SDS011;56472;52.114;5.492;2023-08-20T08:28:04;5.53;;;1.60;;
69327;SDS011;56472;52.114;5.492;2023-08-20T08:30:31;4.10;;;1.40;;
69327;SDS011;56472;52.114;5.492;2023-08-20T08:32:58;6.18;;;1.52;;
69327;SDS011;56472;52.114;5.492;2023-08-20T08:35:26;2.50;;;1.23;;
69327;SDS011;56472;52.114;5.492;2023-08-20T08:37:52;6.13;;;1.83;;
69327;SDS011;56472;52.114;5.492;2023-08-20T08:40:19;5.10;;;1.25;;
69327;SDS011;56472;52.114;5.492;2023-08-20T08:42:47;4.30;;;1.50;;
69327;SDS011;56472;52.114;5.492;2023-08-20T08:45:18;3.28;;;1.40;;
69327;SDS011;56472;52.114;5.492;2023-08-20T08:47:48;5.95;;;1.55;;
69327;SDS011;56472;52.114;5.492;2023-08-20T08:50:16;5.35;;;1.80;;
69327;SDS011;56472;52.114;5.492;2023-08-20T08:52:43;4.63;;;1.30;;
69327;SDS011;56472;52.114;5.492;2023-08-20T08:55:12;7.03;;;1.70;;
69327;SDS011;56472;52.114;5.492;2023-08-20T08:57:39;4.22;;;1.42;;
69327;SDS011;56472;52.114;5.492;2023-08-20T09:00:06;4.82;;;1.50;;
69327;SDS011;56472;52.114;5.492;2023-08-20T09:02:33;6.10;;;1.50;;
69327;SDS011;56472;52.114;5.492;2023-08-20T09:05:00;3.22;;;1.50;;
69327;SDS011;56472;52.114;5.492;2023-08-20T09:07:27;4.47;;;1.63;;
69327;SDS011;56472;52.114;5.492;2023-08-20T09:09:57;6.05;;;1.38;;
69327;SDS011;56472;52.114;5.492;2023-08-20T09:12:28;4.57;;;1.27;;
69327;SDS011;56472;52.114;5.492;2023-08-20T09:15:00;6.57;;;1.75;;
69327;SDS011;56472;52.114;5.492;2023-08-20T09:17:28;4.70;;;1.50;;
69327;SDS011;56472;52.114;5.492;2023-08-20T09:19:55;3.25;;;1.35;;
69327;SDS011;56472;52.114;5.492;2023-08-20T09:22:23;4.68;;;1.15;;
69327;SDS011;56472;52.114;5.492;2023-08-20T09:24:54;1.88;;;0.90;;
69327;SDS011;56472;52.114;5.492;2023-08-20T09:27:23;4.32;;;1.35;;
69327;SDS011;56472;52.114;5.492;2023-08-20T09:29:51;5.07;;;1.60;;
69327;SDS011;56472;52.114;5.492;2023-08-20T09:34:48;2.95;;;1.20;;
69327;SDS011;56472;52.114;5.492;2023-08-20T09:37:18;6.70;;;1.35;;
69327;SDS011;56472;52.114;5.492;2023-08-20T09:39:46;2.53;;;1.33;;
69327;SDS011;56472;52.114;5.492;2023-08-20T09:42:13;4.07;;;1.00;;
69327;SDS011;56472;52.114;5.492;2023-08-20T09:44:42;3.90;;;1.00;;
69327;SDS011;56472;52.114;5.492;2023-08-20T09:47:10;4.78;;;1.30;;
69327;SDS011;56472;52.114;5.492;2023-08-20T09:49:41;3.40;;;1.33;;
69327;SDS011;56472;52.114;5.492;2023-08-20T09:52:11;3.35;;;1.40;;
69327;SDS011;56472;52.114;5.492;2023-08-20T09:55:01;3.38;;;1.17;;
69327;SDS011;56472;52.114;5.492;2023-08-20T09:57:38;7.22;;;1.48;;
69327;SDS011;56472;52.114;5.492;2023-08-20T10:00:10;3.15;;;1.17;;
69327;SDS011;56472;52.114;5.492;2023-08-20T10:02:39;3.75;;;1.35;;
69327;SDS011;56472;52.114;5.492;2023-08-20T10:05:08;6.22;;;1.20;;
69327;SDS011;56472;52.114;5.492;2023-08-20T10:07:37;3.92;;;1.00;;
69327;SDS011;56472;52.114;5.492;2023-08-20T10:10:05;2.17;;;0.80;;
69327;SDS011;56472;52.114;5.492;2023-08-20T10:12:34;2.47;;;1.05;;
69327;SDS011;56472;52.114;5.492;2023-08-20T10:15:03;6.13;;;1.15;;
69327;SDS011;56472;52.114;5.492;2023-08-20T10:17:31;3.88;;;1.48;;
69327;SDS011;56472;52.114;5.492;2023-08-20T10:20:04;3.85;;;1.27;;
69327;SDS011;56472;52.114;5.492;2023-08-20T10:22:44;2.30;;;1.15;;
69327;SDS011;56472;52.114;5.492;2023-08-20T10:25:12;3.67;;;0.93;;
69327;SDS011;56472;52.114;5.492;2023-08-20T10:27:52;2.65;;;1.33;;
69327;SDS011;56472;52.114;5.492;2023-08-20T10:30:23;3.17;;;0.95;;
69327;SDS011;56472;52.114;5.492;2023-08-20T10:32:53;3.55;;;0.98;;
69327;SDS011;56472;52.114;5.492;2023-08-20T10:35:25;6.25;;;1.10;;
69327;SDS011;56472;52.114;5.492;2023-08-20T10:38:12;3.60;;;1.00;;
69327;SDS011;56472;52.114;5.492;2023-08-20T10:43:40;4.15;;;3.40;;
69327;SDS011;56472;52.114;5.492;2023-08-20T10:46:20;7.45;;;2.72;;
69327;SDS011;56472;52.114;5.492;2023-08-20T10:48:51;9.32;;;4.25;;
69327;SDS011;56472;52.114;5.492;2023-08-20T10:59:17;8.45;;;2.40;;
69327;SDS011;56472;52.114;5.492;2023-08-20T11:01:53;7.28;;;2.03;;
69327;SDS011;56472;52.114;5.492;2023-08-20T11:04:23;5.25;;;2.30;;
69327;SDS011;56472;52.114;5.492;2023-08-20T11:06:55;6.65;;;2.03;;
69327;SDS011;56472;52.114;5.492;2023-08-20T11:09:23;4.53;;;1.63;;
69327;SDS011;56472;52.114;5.492;2023-08-20T11:11:52;3.83;;;1.83;;
69327;SDS011;56472;52.114;5.492;2023-08-20T11:14:19;2.70;;;1.38;;
69327;SDS011;56472;52.114;5.492;2023-08-20T11:16:47;5.18;;;1.42;;
69327;SDS011;56472;52.114;5.492;2023-08-20T11:19:19;4.70;;;1.10;;
69327;SDS011;56472;52.114;5.492;2023-08-20T11:21:49;2.50;;;1.20;;
69327;SDS011;56472;52.114;5.492;2023-08-20T11:24:17;2.55;;;1.20;;
69327;SDS011;56472;52.114;5.492;2023-08-20T11:26:46;3.38;;;1.25;;
69327;SDS011;56472;52.114;5.492;2023-08-20T11:29:14;3.60;;;1.40;;
69327;SDS011;56472;52.114;5.492;2023-08-20T11:31:48;1.98;;;1.17;;
69327;SDS011;56472;52.114;5.492;2023-08-20T11:34:16;2.67;;;1.08;;
69327;SDS011;56472;52.114;5.492;2023-08-20T11:36:45;2.72;;;1.10;;
69327;SDS011;56472;52.114;5.492;2023-08-20T11:39:12;11.60;;;1.40;;
69327;SDS011;56472;52.114;5.492;2023-08-20T11:41:39;3.45;;;1.55;;
69327;SDS011;56472;52.114;5.492;2023-08-20T11:44:09;2.78;;;0.90;;
69327;SDS011;56472;52.114;5.492;2023-08-20T11:46:43;3.95;;;1.30;;
69327;SDS011;56472;52.114;5.492;2023-08-20T11:49:11;1.77;;;1.08;;
69327;SDS011;56472;52.114;5.492;2023-08-20T11:51:39;4.22;;;0.90;;
69327;SDS011;56472;52.114;5.492;2023-08-20T11:54:11;6.85;;;1.65;;
69327;SDS011;56472;52.114;5.492;2023-08-20T11:56:46;4.28;;;0.77;;
69327;SDS011;56472;52.114;5.492;2023-08-20T11:59:15;3.97;;;1.10;;
69327;SDS011;56472;52.114;5.492;2023-08-20T12:01:43;1.92;;;1.10;;
69327;SDS011;56472;52.114;5.492;2023-08-20T12:04:29;1.58;;;0.90;;
69327;SDS011;56472;52.114;5.492;2023-08-20T12:09:31;1.70;;;1.08;;
69327;SDS011;56472;52.114;5.492;2023-08-20T12:11:59;2.35;;;0.90;;
69327;SDS011;56472;52.114;5.492;2023-08-20T12:14:27;3.45;;;1.25;;
69327;SDS011;56472;52.114;5.492;2023-08-20T12:16:54;1.90;;;0.95;;
69327;SDS011;56472;52.114;5.492;2023-08-20T12:19:21;1.67;;;0.80;;
69327;SDS011;56472;52.114;5.492;2023-08-20T12:21:49;2.75;;;0.88;;
69327;SDS011;56472;52.114;5.492;2023-08-20T12:24:16;1.50;;;0.68;;
69327;SDS011;56472;52.114;5.492;2023-08-20T12:26:45;5.57;;;1.00;;
69327;SDS011;56472;52.114;5.492;2023-08-20T12:29:12;4.70;;;1.10;;
69327;SDS011;56472;52.114;5.492;2023-08-20T12:31:39;2.70;;;0.82;;
69327;SDS011;56472;52.114;5.492;2023-08-20T12:34:07;1.35;;;1.00;;
69327;SDS011;56472;52.114;5.492;2023-08-20T12:36:35;3.65;;;1.05;;
69327;SDS011;56472;52.114;5.492;2023-08-20T12:39:03;4.53;;;1.20;;
69327;SDS011;56472;52.114;5.492;2023-08-20T12:41:30;4.45;;;0.93;;
69327;SDS011;56472;52.114;5.492;2023-08-20T12:43:58;2.25;;;0.80;;
69327;SDS011;56472;52.114;5.492;2023-08-20T12:46:25;1.42;;;0.82;;
69327;SDS011;56472;52.114;5.492;2023-08-20T12:48:52;2.97;;;0.80;;
69327;SDS011;56472;52.114;5.492;2023-08-20T12:51:19;2.70;;;0.90;;
69327;SDS011;56472;52.114;5.492;2023-08-20T12:53:46;1.67;;;0.70;;
69327;SDS011;56472;52.114;5.492;2023-08-20T12:56:13;1.70;;;0.70;;
69327;SDS011;56472;52.114;5.492;2023-08-20T12:58:41;3.05;;;0.90;;
69327;SDS011;56472;52.114;5.492;2023-08-20T13:01:07;0.98;;;0.80;;
69327;SDS011;56472;52.114;5.492;2023-08-20T13:03:34;3.25;;;0.77;;
69327;SDS011;56472;52.114;5.492;2023-08-20T13:06:02;2.65;;;0.90;;
69327;SDS011;56472;52.114;5.492;2023-08-20T13:08:29;1.73;;;0.90;;
69327;SDS011;56472;52.114;5.492;2023-08-20T13:10:57;2.50;;;1.08;;
69327;SDS011;56472;52.114;5.492;2023-08-20T13:13:24;3.10;;;1.13;;
69327;SDS011;56472;52.114;5.492;2023-08-20T13:15:52;2.42;;;0.90;;
69327;SDS011;56472;52.114;5.492;2023-08-20T13:18:20;5.18;;;1.02;;
69327;SDS011;56472;52.114;5.492;2023-08-20T13:20:54;2.28;;;0.85;;
69327;SDS011;56472;52.114;5.492;2023-08-20T13:23:21;2.28;;;0.93;;
69327;SDS011;56472;52.114;5.492;2023-08-20T13:25:49;4.78;;;1.20;;
69327;SDS011;56472;52.114;5.492;2023-08-20T13:28:16;3.78;;;0.80;;
69327;SDS011;56472;52.114;5.492;2023-08-20T13:30:44;1.33;;;0.95;;
69327;SDS011;56472;52.114;5.492;2023-08-20T13:33:12;1.55;;;1.00;;
69327;SDS011;56472;52.114;5.492;2023-08-20T13:35:40;3.10;;;1.00;;
69327;SDS011;56472;52.114;5.492;2023-08-20T13:38:07;1.38;;;0.90;;
69327;SDS011;56472;52.114;5.492;2023-08-20T13:40:34;3.13;;;1.25;;
69327;SDS011;56472;52.114;5.492;2023-08-20T13:43:01;3.90;;;1.10;;
69327;SDS011;56472;52.114;5.492;2023-08-20T13:45:29;2.50;;;1.15;;
69327;SDS011;56472;52.114;5.492;2023-08-20T13:47:56;3.05;;;1.00;;
69327;SDS011;56472;52.114;5.492;2023-08-20T13:50:23;3.25;;;1.40;;
69327;SDS011;56472;52.114;5.492;2023-08-20T13:52:50;3.53;;;1.08;;
69327;SDS011;56472;52.114;5.492;2023-08-20T13:55:16;5.93;;;1.17;;
69327;SDS011;56472;52.114;5.492;2023-08-20T13:57:43;1.27;;;0.82;;
69327;SDS011;56472;52.114;5.492;2023-08-20T14:00:10;2.72;;;1.15;;
69327;SDS011;56472;52.114;5.492;2023-08-20T14:02:39;2.70;;;1.17;;
69327;SDS011;56472;52.114;5.492;2023-08-20T14:05:06;2.47;;;0.80;;
69327;SDS011;56472;52.114;5.492;2023-08-20T14:07:33;3.25;;;1.42;;
69327;SDS011;56472;52.114;5.492;2023-08-20T14:10:01;3.42;;;1.10;;
69327;SDS011;56472;52.114;5.492;2023-08-20T14:12:30;1.65;;;0.98;;
69327;SDS011;56472;52.114;5.492;2023-08-20T14:14:57;1.85;;;1.10;;
69327;SDS011;56472;52.114;5.492;2023-08-20T14:17:24;3.08;;;1.20;;
69327;SDS011;56472;52.114;5.492;2023-08-20T14:19:52;4.95;;;1.20;;
69327;SDS011;56472;52.114;5.492;2023-08-20T14:22:19;3.42;;;1.00;;
69327;SDS011;56472;52.114;5.492;2023-08-20T14:24:45;1.98;;;0.82;;
69327;SDS011;56472;52.114;5.492;2023-08-20T14:27:13;3.05;;;0.88;;
69327;SDS011;56472;52.114;5.492;2023-08-20T14:29:40;3.60;;;1.55;;
69327;SDS011;56472;52.114;5.492;2023-08-20T14:32:08;2.05;;;0.95;;
69327;SDS011;56472;52.114;5.492;2023-08-20T14:34:34;2.13;;;1.05;;
69327;SDS011;56472;52.114;5.492;2023-08-20T14:37:02;4.47;;;1.10;;
69327;SDS011;56472;52.114;5.492;2023-08-20T14:39:29;4.72;;;1.23;;
69327;SDS011;56472;52.114;5.492;2023-08-20T14:41:58;2.92;;;1.40;;
69327;SDS011;56472;52.114;5.492;2023-08-20T14:44:25;2.47;;;1.08;;
69327;SDS011;56472;52.114;5.492;2023-08-20T14:46:52;5.03;;;1.20;;
69327;SDS011;56472;52.114;5.492;2023-08-20T14:49:18;3.08;;;0.98;;
69327;SDS011;56472;52.114;5.492;2023-08-20T14:51:45;1.95;;;0.90;;
69327;SDS011;56472;52.114;5.492;2023-08-20T14:54:12;2.85;;;1.30;;
69327;SDS011;56472;52.114;5.492;2023-08-20T14:56:40;4.75;;;1.05;;
69327;SDS011;56472;52.114;5.492;2023-08-20T14:59:07;2.72;;;1.08;;
69327;SDS011;56472;52.114;5.492;2023-08-20T15:01:36;6.35;;;1.25;;
69327;SDS011;56472;52.114;5.492;2023-08-20T15:04:03;3.00;;;1.17;;
69327;SDS011;56472;52.114;5.492;2023-08-20T15:06:30;2.65;;;1.00;;
69327;SDS011;56472;52.114;5.492;2023-08-20T15:08:57;3.28;;;0.98;;
69327;SDS011;56472;52.114;5.492;2023-08-20T15:11:23;4.97;;;1.08;;
69327;SDS011;56472;52.114;5.492;2023-08-20T15:13:51;2.92;;;1.10;;
69327;SDS011;56472;52.114;5.492;2023-08-20T15:16:18;5.10;;;1.30;;
69327;SDS011;56472;52.114;5.492;2023-08-20T15:18:45;2.20;;;0.98;;
69327;SDS011;56472;52.114;5.492;2023-08-20T15:21:12;4.80;;;1.10;;
69327;SDS011;56472;52.114;5.492;2023-08-20T15:23:39;2.05;;;1.13;;
69327;SDS011;56472;52.114;5.492;2023-08-20T15:26:06;2.15;;;0.90;;
69327;SDS011;56472;52.114;5.492;2023-08-20T15:28:33;4.13;;;1.13;;
69327;SDS011;56472;52.114;5.492;2023-08-20T15:31:00;2.40;;;1.13;;
69327;SDS011;56472;52.114;5.492;2023-08-20T15:33:28;2.17;;;1.00;;
69327;SDS011;56472;52.114;5.492;2023-08-20T15:35:57;1.92;;;0.95;;
69327;SDS011;56472;52.114;5.492;2023-08-20T15:38:25;1.60;;;0.77;;
69327;SDS011;56472;52.114;5.492;2023-08-20T15:40:56;1.58;;;0.85;;
69327;SDS011;56472;52.114;5.492;2023-08-20T15:43:24;2.30;;;1.00;;
69327;SDS011;56472;52.114;5.492;2023-08-20T15:45:51;3.28;;;1.00;;
69327;SDS011;56472;52.114;5.492;2023-08-20T15:48:19;3.10;;;1.02;;
69327;SDS011;56472;52.114;5.492;2023-08-20T15:50:46;3.10;;;1.15;;
69327;SDS011;56472;52.114;5.492;2023-08-20T15:53:13;4.80;;;1.42;;
69327;SDS011;56472;52.114;5.492;2023-08-20T15:55:40;3.55;;;1.35;;
69327;SDS011;56472;52.114;5.492;2023-08-20T15:58:06;2.42;;;1.27;;
69327;SDS011;56472;52.114;5.492;2023-08-20T16:00:33;2.72;;;1.20;;
69327;SDS011;56472;52.114;5.492;2023-08-20T16:03:01;1.92;;;0.80;;
69327;SDS011;56472;52.114;5.492;2023-08-20T16:05:29;2.50;;;1.10;;
69327;SDS011;56472;52.114;5.492;2023-08-20T16:07:56;3.42;;;0.80;;
69327;SDS011;56472;52.114;5.492;2023-08-20T16:10:22;1.67;;;0.70;;
69327;SDS011;56472;52.114;5.492;2023-08-20T16:12:50;1.95;;;0.95;;
69327;SDS011;56472;52.114;5.492;2023-08-20T16:15:18;1.38;;;1.00;;
69327;SDS011;56472;52.114;5.492;2023-08-20T16:17:44;4.50;;;1.05;;
69327;SDS011;56472;52.114;5.492;2023-08-20T16:20:12;1.25;;;1.00;;
69327;SDS011;56472;52.114;5.492;2023-08-20T16:22:39;1.38;;;0.70;;
69327;SDS011;56472;52.114;5.492;2023-08-20T16:25:06;2.45;;;1.00;;
69327;SDS011;56472;52.114;5.492;2023-08-20T16:27:33;2.13;;;1.05;;
69327;SDS011;56472;52.114;5.492;2023-08-20T16:30:04;2.67;;;1.10;;
69327;SDS011;56472;52.114;5.492;2023-08-20T16:32:32;3.53;;;1.10;;
69327;SDS011;56472;52.114;5.492;2023-08-20T16:34:59;2.85;;;0.95;;
69327;SDS011;56472;52.114;5.492;2023-08-20T16:37:26;7.18;;;1.00;;
69327;SDS011;56472;52.114;5.492;2023-08-20T16:39:53;2.22;;;0.90;;
69327;SDS011;56472;52.114;5.492;2023-08-20T16:42:20;4.38;;;1.20;;
69327;SDS011;56472;52.114;5.492;2023-08-20T16:44:46;1.45;;;1.10;;
69327;SDS011;56472;52.114;5.492;2023-08-20T16:47:14;3.13;;;1.02;;
69327;SDS011;56472;52.114;5.492;2023-08-20T16:49:41;4.43;;;0.93;;
69327;SDS011;56472;52.114;5.492;2023-08-20T16:52:09;1.13;;;0.88;;
69327;SDS011;56472;52.114;5.492;2023-08-20T16:54:36;2.78;;;1.13;;
69327;SDS011;56472;52.114;5.492;2023-08-20T16:57:03;3.85;;;1.00;;
69327;SDS011;56472;52.114;5.492;2023-08-20T16:59:30;1.00;;;0.90;;
69327;SDS011;56472;52.114;5.492;2023-08-20T17:01:57;3.80;;;0.93;;
69327;SDS011;56472;52.114;5.492;2023-08-20T17:04:24;2.70;;;0.90;;
69327;SDS011;56472;52.114;5.492;2023-08-20T17:06:52;1.35;;;0.80;;
69327;SDS011;56472;52.114;5.492;2023-08-20T17:09:19;1.92;;;0.80;;
69327;SDS011;56472;52.114;5.492;2023-08-20T17:11:46;2.83;;;1.10;;
69327;SDS011;56472;52.114;5.492;2023-08-20T17:14:14;3.55;;;1.20;;
69327;SDS011;56472;52.114;5.492;2023-08-20T17:16:41;2.35;;;1.20;;
69327;SDS011;56472;52.114;5.492;2023-08-20T17:19:08;3.13;;;1.10;;
69327;SDS011;56472;52.114;5.492;2023-08-20T17:21:35;7.38;;;1.48;;
69327;SDS011;56472;52.114;5.492;2023-08-20T17:24:02;3.15;;;1.00;;
69327;SDS011;56472;52.114;5.492;2023-08-20T17:26:29;2.33;;;1.20;;
69327;SDS011;56472;52.114;5.492;2023-08-20T17:28:56;6.68;;;1.35;;
69327;SDS011;56472;52.114;5.492;2023-08-20T17:31:23;3.65;;;1.08;;
69327;SDS011;56472;52.114;5.492;2023-08-20T17:33:50;2.10;;;1.27;;
69327;SDS011;56472;52.114;5.492;2023-08-20T17:36:17;2.28;;;1.05;;
69327;SDS011;56472;52.114;5.492;2023-08-20T17:38:44;5.43;;;1.38;;
69327;SDS011;56472;52.114;5.492;2023-08-20T17:41:10;0.95;;;0.65;;
69327;SDS011;56472;52.114;5.492;2023-08-20T17:43:37;1.98;;;1.10;;
69327;SDS011;56472;52.114;5.492;2023-08-20T17:46:04;6.32;;;1.13;;
69327;SDS011;56472;52.114;5.492;2023-08-20T17:48:31;4.82;;;1.38;;
69327;SDS011;56472;52.114;5.492;2023-08-20T17:50:58;1.98;;;1.02;;
69327;SDS011;56472;52.114;5.492;2023-08-20T17:53:25;2.88;;;1.15;;
69327;SDS011;56472;52.114;5.492;2023-08-20T17:55:53;3.60;;;1.00;;
69327;SDS011;56472;52.114;5.492;2023-08-20T17:58:20;4.53;;;1.40;;
69327;SDS011;56472;52.114;5.492;2023-08-20T18:00:48;5.28;;;1.60;;
69327;SDS011;56472;52.114;5.492;2023-08-20T18:03:15;3.35;;;1.27;;
69327;SDS011;56472;52.114;5.492;2023-08-20T18:05:43;5.68;;;1.55;;
69327;SDS011;56472;52.114;5.492;2023-08-20T18:08:10;6.93;;;1.73;;
69327;SDS011;56472;52.114;5.492;2023-08-20T18:10:37;4.40;;;1.58;;
69327;SDS011;56472;52.114;5.492;2023-08-20T18:13:04;10.70;;;1.67;;
69327;SDS011;56472;52.114;5.492;2023-08-20T18:15:33;3.50;;;1.20;;
69327;SDS011;56472;52.114;5.492;2023-08-20T18:18:00;3.40;;;1.45;;
69327;SDS011;56472;52.114;5.492;2023-08-20T18:20:27;5.38;;;1.40;;
69327;SDS011;56472;52.114;5.492;2023-08-20T18:22:54;6.25;;;1.25;;
69327;SDS011;56472;52.114;5.492;2023-08-20T18:25:21;3.55;;;1.50;;
69327;SDS011;56472;52.114;5.492;2023-08-20T18:27:48;4.70;;;1.52;;
69327;SDS011;56472;52.114;5.492;2023-08-20T18:30:15;3.85;;;1.35;;
69327;SDS011;56472;52.114;5.492;2023-08-20T18:32:42;9.20;;;1.90;;
69327;SDS011;56472;52.114;5.492;2023-08-20T18:35:09;3.15;;;1.23;;
69327;SDS011;56472;52.114;5.492;2023-08-20T18:37:37;6.68;;;1.30;;
69327;SDS011;56472;52.114;5.492;2023-08-20T18:40:04;8.23;;;1.70;;
69327;SDS011;56472;52.114;5.492;2023-08-20T18:42:35;3.83;;;1.60;;
69327;SDS011;56472;52.114;5.492;2023-08-20T18:45:02;2.70;;;1.15;;
69327;SDS011;56472;52.114;5.492;2023-08-20T18:47:29;4.43;;;1.25;;
69327;SDS011;56472;52.114;5.492;2023-08-20T18:49:56;3.80;;;1.40;;
69327;SDS011;56472;52.114;5.492;2023-08-20T18:52:24;5.03;;;1.40;;
69327;SDS011;56472;52.114;5.492;2023-08-20T18:54:50;3.22;;;1.30;;
69327;SDS011;56472;52.114;5.492;2023-08-20T18:57:17;4.18;;;1.17;;
69327;SDS011;56472;52.114;5.492;2023-08-20T18:59:44;4.95;;;1.20;;
69327;SDS011;56472;52.114;5.492;2023-08-20T19:02:11;5.20;;;1.40;;
69327;SDS011;56472;52.114;5.492;2023-08-20T19:04:38;5.80;;;1.65;;
69327;SDS011;56472;52.114;5.492;2023-08-20T19:07:06;6.47;;;1.40;;
69327;SDS011;56472;52.114;5.492;2023-08-20T19:09:34;6.63;;;1.40;;
69327;SDS011;56472;52.114;5.492;2023-08-20T19:12:01;4.68;;;1.70;;
69327;SDS011;56472;52.114;5.492;2023-08-20T19:14:29;3.60;;;1.40;;
69327;SDS011;56472;52.114;5.492;2023-08-20T19:16:56;4.07;;;1.73;;
69327;SDS011;56472;52.114;5.492;2023-08-20T19:19:23;5.97;;;1.73;;
69327;SDS011;56472;52.114;5.492;2023-08-20T19:21:51;7.90;;;2.03;;
69327;SDS011;56472;52.114;5.492;2023-08-20T19:24:18;5.35;;;1.52;;
69327;SDS011;56472;52.114;5.492;2023-08-20T19:26:45;7.63;;;1.50;;
69327;SDS011;56472;52.114;5.492;2023-08-20T19:29:12;2.17;;;1.17;;
69327;SDS011;56472;52.114;5.492;2023-08-20T19:31:39;6.43;;;1.33;;
69327;SDS011;56472;52.114;5.492;2023-08-20T19:34:06;7.32;;;1.30;;
69327;SDS011;56472;52.114;5.492;2023-08-20T19:36:33;7.00;;;1.45;;
69327;SDS011;56472;52.114;5.492;2023-08-20T19:39:00;5.05;;;1.55;;
69327;SDS011;56472;52.114;5.492;2023-08-20T19:41:27;5.13;;;1.60;;
69327;SDS011;56472;52.114;5.492;2023-08-20T19:43:54;6.00;;;1.75;;
69327;SDS011;56472;52.114;5.492;2023-08-20T19:46:20;6.80;;;1.27;;
69327;SDS011;56472;52.114;5.492;2023-08-20T19:48:51;6.95;;;1.40;;
69327;SDS011;56472;52.114;5.492;2023-08-20T19:51:18;4.90;;;1.20;;
69327;SDS011;56472;52.114;5.492;2023-08-20T19:53:45;5.80;;;1.40;;
69327;SDS011;56472;52.114;5.492;2023-08-20T19:56:12;3.95;;;1.17;;
69327;SDS011;56472;52.114;5.492;2023-08-20T19:58:39;7.72;;;1.15;;
69327;SDS011;56472;52.114;5.492;2023-08-20T20:01:06;3.67;;;1.50;;
69327;SDS011;56472;52.114;5.492;2023-08-20T20:03:34;6.80;;;1.55;;
69327;SDS011;56472;52.114;5.492;2023-08-20T20:06:01;5.95;;;1.60;;
69327;SDS011;56472;52.114;5.492;2023-08-20T20:08:28;10.57;;;1.67;;
69327;SDS011;56472;52.114;5.492;2023-08-20T20:10:55;5.72;;;1.63;;
69327;SDS011;56472;52.114;5.492;2023-08-20T20:13:22;5.25;;;1.60;;
69327;SDS011;56472;52.114;5.492;2023-08-20T20:15:49;5.40;;;1.45;;
69327;SDS011;56472;52.114;5.492;2023-08-20T20:18:16;4.07;;;1.48;;
69327;SDS011;56472;52.114;5.492;2023-08-20T20:20:43;3.85;;;1.40;;
69327;SDS011;56472;52.114;5.492;2023-08-20T20:23:14;4.00;;;1.35;;
69327;SDS011;56472;52.114;5.492;2023-08-20T20:25:44;4.20;;;1.40;;
69327;SDS011;56472;52.114;5.492;2023-08-20T20:28:11;5.63;;;1.60;;
69327;SDS011;56472;52.114;5.492;2023-08-20T20:30:40;5.43;;;1.63;;
69327;SDS011;56472;52.114;5.492;2023-08-20T20:33:07;3.78;;;1.38;;
69327;SDS011;56472;52.114;5.492;2023-08-20T20:35:34;3.67;;;1.13;;
69327;SDS011;56472;52.114;5.492;2023-08-20T20:38:01;7.72;;;1.40;;
69327;SDS011;56472;52.114;5.492;2023-08-20T20:40:29;3.20;;;1.33;;
69327;SDS011;56472;52.114;5.492;2023-08-20T20:42:58;5.38;;;1.38;;
69327;SDS011;56472;52.114;5.492;2023-08-20T20:45:24;3.15;;;1.00;;
69327;SDS011;56472;52.114;5.492;2023-08-20T20:47:51;6.63;;;1.70;;
69327;SDS011;56472;52.114;5.492;2023-08-20T20:50:18;2.95;;;1.20;;
69327;SDS011;56472;52.114;5.492;2023-08-20T20:52:45;4.60;;;1.48;;
69327;SDS011;56472;52.114;5.492;2023-08-20T20:55:12;6.95;;;1.45;;
69327;SDS011;56472;52.114;5.492;2023-08-20T20:57:39;12.27;;;1.55;;
69327;SDS011;56472;52.114;5.492;2023-08-20T21:00:06;7.70;;;1.20;;
69327;SDS011;56472;52.114;5.492;2023-08-20T21:02:34;2.42;;;1.20;;
69327;SDS011;56472;52.114;5.492;2023-08-20T21:05:02;3.70;;;1.20;;
69327;SDS011;56472;52.114;5.492;2023-08-20T21:07:29;17.23;;;2.30;;
69327;SDS011;56472;52.114;5.492;2023-08-20T21:09:56;2.50;;;1.30;;
69327;SDS011;56472;52.114;5.492;2023-08-20T21:12:22;1.77;;;1.10;;
69327;SDS011;56472;52.114;5.492;2023-08-20T21:14:49;7.53;;;1.77;;
69327;SDS011;56472;52.114;5.492;2023-08-20T21:17:16;6.90;;;1.98;;
69327;SDS011;56472;52.114;5.492;2023-08-20T21:19:43;4.43;;;1.98;;
69327;SDS011;56472;52.114;5.492;2023-08-20T21:22:11;7.47;;;1.73;;
69327;SDS011;56472;52.114;5.492;2023-08-20T21:24:38;5.60;;;1.92;;
69327;SDS011;56472;52.114;5.492;2023-08-20T21:27:05;4.15;;;1.73;;
69327;SDS011;56472;52.114;5.492;2023-08-20T21:29:35;5.72;;;2.42;;
69327;SDS011;56472;52.114;5.492;2023-08-20T21:32:06;6.28;;;2.00;;
69327;SDS011;56472;52.114;5.492;2023-08-20T21:34:33;4.55;;;1.60;;
69327;SDS011;56472;52.114;5.492;2023-08-20T21:37:01;3.72;;;1.50;;
69327;SDS011;56472;52.114;5.492;2023-08-20T21:39:28;7.50;;;1.50;;
69327;SDS011;56472;52.114;5.492;2023-08-20T21:41:55;4.20;;;1.63;;
69327;SDS011;56472;52.114;5.492;2023-08-20T21:44:22;1.98;;;1.27;;
69327;SDS011;56472;52.114;5.492;2023-08-20T21:46:52;3.63;;;1.30;;
69327;SDS011;56472;52.114;5.492;2023-08-20T21:49:20;3.33;;;1.45;;
69327;SDS011;56472;52.114;5.492;2023-08-20T21:51:50;6.10;;;1.40;;
69327;SDS011;56472;52.114;5.492;2023-08-20T21:54:18;6.72;;;1.70;;
69327;SDS011;56472;52.114;5.492;2023-08-20T21:56:49;5.25;;;2.08;;
69327;SDS011;56472;52.114;5.492;2023-08-20T21:59:17;6.40;;;2.00;;
69327;SDS011;56472;52.114;5.492;2023-08-20T22:01:44;4.30;;;1.80;;
69327;SDS011;56472;52.114;5.492;2023-08-20T22:04:11;2.72;;;1.55;;
69327;SDS011;56472;52.114;5.492;2023-08-20T22:06:38;3.15;;;1.52;;
69327;SDS011;56472;52.114;5.492;2023-08-20T22:09:05;5.72;;;1.80;;
69327;SDS011;56472;52.114;5.492;2023-08-20T22:11:32;4.28;;;1.50;;
69327;SDS011;56472;52.114;5.492;2023-08-20T22:13:59;5.00;;;1.73;;
69327;SDS011;56472;52.114;5.492;2023-08-20T22:16:26;4.88;;;1.65;;
69327;SDS011;56472;52.114;5.492;2023-08-20T22:18:54;8.63;;;1.90;;
69327;SDS011;56472;52.114;5.492;2023-08-20T22:21:20;4.43;;;2.00;;
69327;SDS011;56472;52.114;5.492;2023-08-20T22:23:47;4.88;;;1.63;;
69327;SDS011;56472;52.114;5.492;2023-08-20T22:26:14;6.72;;;2.58;;
69327;SDS011;56472;52.114;5.492;2023-08-20T22:28:41;4.78;;;1.38;;
69327;SDS011;56472;52.114;5.492;2023-08-20T22:31:08;6.03;;;1.40;;
69327;SDS011;56472;52.114;5.492;2023-08-20T22:33:35;3.25;;;1.30;;
69327;SDS011;56472;52.114;5.492;2023-08-20T22:36:02;4.35;;;1.58;;
69327;SDS011;56472;52.114;5.492;2023-08-20T22:38:29;6.72;;;1.67;;
69327;SDS011;56472;52.114;5.492;2023-08-20T22:40:56;8.68;;;1.83;;
69327;SDS011;56472;52.114;5.492;2023-08-20T22:43:23;10.60;;;1.42;;
69327;SDS011;56472;52.114;5.492;2023-08-20T22:45:50;8.93;;;2.25;;
69327;SDS011;56472;52.114;5.492;2023-08-20T22:48:16;2.60;;;1.23;;